This is the latest recevied weather packets stored in our database for station/object BMCB-1. If no packets are shown the sender has not sent any weather packets the latest 10 day(s).
| Time | Temp. | Humidity | Pressure | Rain* | Wind** | Luminosity | Snow |
|---|---|---|---|---|---|---|---|
| 1777601416 | 10° C | 38% | 1028.6 hPa | 0 mm | - | 0 W/m² | - |
| 1777600216 | 10° C | 39% | 1028.8 hPa | 0 mm | - | 0 W/m² | - |
| 1777596016 | 10° C | 38% | 1028.9 hPa | 0 mm | - | 0 W/m² | - |
| 1777593021 | 10° C | 38% | 1029.1 hPa | 0 mm | - | 0 W/m² | - |
| 1777592417 | 10° C | 38% | 1029.1 hPa | 0 mm | - | 0 W/m² | - |
| 1777591844 | 10° C | 38% | 1029 hPa | 0 mm | - | 0 W/m² | - |
| 1777590618 | 10.56° C | 37% | 1029.1 hPa | 0 mm | - | 0 W/m² | - |
| 1777585221 | 11.67° C | 33% | 1028.9 hPa | 0 mm | - | 0 W/m² | - |
| 1777578616 | 13.33° C | 31% | 1028.2 hPa | 0 mm | - | 0 W/m² | - |
| 1777576223 | 14.44° C | 27% | 1027.8 hPa | 0 mm | - | 2 W/m² | - |
| 1777573221 | 16.11° C | 27% | 1027.1 hPa | 0 mm | - | 28 W/m² | - |
| 1777564817 | 18.89° C | 22% | 1026.6 hPa | 0 mm | - | 350 W/m² | - |
| 1777563018 | 18.89° C | 23% | 1026.6 hPa | 0 mm | - | 472 W/m² | - |
| 1777560618 | 18.89° C | 25% | 1026.8 hPa | 0 mm | - | 564 W/m² | - |
| 1777556442 | 18.33° C | 25% | 1027.2 hPa | 0 mm | - | 698 W/m² | - |
| 1777554622 | 18.33° C | 25% | 1027.5 hPa | 0 mm | - | 738 W/m² | - |
| 1777551016 | 17.22° C | 28% | 1027.9 hPa | 0 mm | - | 786 W/m² | - |
| 1777546816 | 16.11° C | 29% | 1028.6 hPa | 0 mm | - | 780 W/m² | - |
| 1777543216 | 15.56° C | 33% | 1028.6 hPa | 0 mm | - | 724 W/m² | - |
| 1777542616 | 15° C | 33% | 1028.8 hPa | 0 mm | - | 712 W/m² | - |
| 1777539020 | 12.78° C | 39% | 1029.1 hPa | 0 mm | - | 604 W/m² | - |
| 1777538420 | 12.78° C | 40% | 1029.3 hPa | 0 mm | - | 580 W/m² | - |
| 1777535421 | 11.11° C | 44% | 1029.6 hPa | 0 mm | - | 458 W/m² | - |
| 1777529421 | 7.78° C | 50% | 1030 hPa | 0 mm | - | 182 W/m² | - |
| 1777524021 | 6.11° C | 54% | 1029.6 hPa | 0 mm | - | 8 W/m² | - |
* Rain latest hour (hover to see other rain measurements)
** Current wind speed in m/s (hover to see current wind gust speed)